Time;durP1;ratioP1;P1;durP2;ratioP2;P2;SDS_P1;SDS_P2;PMS_P1;PMS_P2;Temp;Humidity;BMP_temperature;BMP_pressure;BME280_temperature;BME280_humidity;BME280_pressure;Samples;Min_cycle;Max_cycle;Signal;HPM_P1;HPM_P2
2023/01/17 00:00:33;;;;;;;;;;;5.60;99.90;;;;;;5026025;28;19920;-70
2023/01/17 00:02:59;;;;;;;;;;;5.50;99.90;;;;;;5024803;28;19913;-71
2023/01/17 00:10:57;;;;;;;;;;;5.50;99.90;;;;;;5045294;28;20340;-72
2023/01/17 00:13:22;;;;;;;;;;;5.50;99.90;;;;;;5045256;28;20267;-70
2023/01/17 00:15:48;;;;;;;;;;;5.50;99.90;;;;;;5045931;28;19916;-72
2023/01/17 00:18:13;;;;;;;;;;;5.50;99.90;;;;;;5045707;28;19912;-71
2023/01/17 00:26:10;;;;;;;;;;;5.50;99.90;;;;;;5026413;28;19919;-72
2023/01/17 01:35:16;;;;;;;;;;;5.40;99.90;;;;;;5067708;28;20059;-71
2023/01/17 01:37:42;;;;;;;;;;;5.40;99.90;;;;;;5068433;28;20417;-71
2023/01/17 01:40:08;;;;;;;;;;;5.40;99.90;;;;;;5058945;28;19919;-71
2023/01/17 01:42:33;;;;;;;;;;;5.40;99.90;;;;;;5046946;28;20326;-71
2023/01/17 01:44:59;;;;;;;;;;;5.40;99.90;;;;;;5045203;28;19935;-72
2023/01/17 01:47:29;;;;;;;;;;;5.40;99.90;;;;;;5028442;28;19917;-71
2023/01/17 01:49:55;;;;;;;;;;;5.40;99.90;;;;;;5027932;28;20261;-72
2023/01/17 01:52:22;;;;;;;;;;;5.40;99.90;;;;;;5027961;28;20629;-72
2023/01/17 01:54:54;;;;;;;;;;;5.40;99.90;;;;;;5037625;28;20007;-70
2023/01/17 01:57:21;;;;;;;;;;;5.30;99.90;;;;;;5048354;28;19915;-71
2023/01/17 02:00:07;;;;;;;;;;;5.30;99.90;;;;;;5046411;28;19992;-72
2023/01/17 02:02:33;;;;;;;;;;;5.40;99.90;;;;;;5047672;28;20409;-72
2023/01/17 02:04:59;;;;;;;;;;;5.40;99.90;;;;;;5063918;28;19954;-71
2023/01/17 02:07:27;;;;;;;;;;;5.30;99.90;;;;;;5067518;28;19963;-71
2023/01/17 02:09:53;;;;;;;;;;;5.30;99.90;;;;;;5060647;28;19908;-72
2023/01/17 02:12:18;;;;;;;;;;;5.30;99.90;;;;;;5038663;28;20385;-72
2023/01/17 02:14:44;;;;;;;;;;;5.30;99.90;;;;;;5048193;28;19913;-72
2023/01/17 02:17:12;;;;;;;;;;;5.30;99.90;;;;;;5047627;28;20009;-72
2023/01/17 02:19:53;;;;;;;;;;;5.30;99.90;;;;;;5035154;28;19913;-71
2023/01/17 02:22:33;;;;;;;;;;;5.30;99.90;;;;;;5027978;28;20334;-72
2023/01/17 02:25:02;;;;;;;;;;;5.30;99.90;;;;;;5030872;28;19920;-72
2023/01/17 02:27:41;;;;;;;;;;;5.30;99.90;;;;;;5046624;28;19938;-71
2023/01/17 02:30:09;;;;;;;;;;;5.30;99.90;;;;;;5047200;28;19913;-72
2023/01/17 02:32:49;;;;;;;;;;;5.30;99.90;;;;;;5044310;28;19916;-71
2023/01/17 02:35:33;;;;;;;;;;;5.30;99.90;;;;;;5048865;28;19916;-72
2023/01/17 02:38:05;;;;;;;;;;;5.30;99.90;;;;;;5047412;28;19909;-71
2023/01/17 02:40:30;;;;;;;;;;;5.20;99.90;;;;;;5043110;28;19912;-72
2023/01/17 02:43:01;;;;;;;;;;;5.30;99.90;;;;;;5046930;28;19921;-71
2023/01/17 02:45:27;;;;;;;;;;;5.20;99.90;;;;;;5047307;28;20448;-72
2023/01/17 02:47:52;;;;;;;;;;;5.20;99.90;;;;;;5047176;28;20019;-72
2023/01/17 02:50:20;;;;;;;;;;;5.20;99.90;;;;;;5042427;28;19913;-71
2023/01/17 02:53:05;;;;;;;;;;;5.20;99.90;;;;;;5047057;28;19913;-71
2023/01/17 02:55:49;;;;;;;;;;;5.20;99.90;;;;;;5046409;28;19914;-72
2023/01/17 02:58:15;;;;;;;;;;;5.20;99.90;;;;;;5046475;28;19913;-72
2023/01/17 03:01:01;;;;;;;;;;;5.10;99.90;;;;;;5030543;28;19944;-72
2023/01/17 03:03:50;;;;;;;;;;;5.20;99.90;;;;;;5029995;28;20054;-72
2023/01/17 03:06:24;;;;;;;;;;;5.10;99.90;;;;;;5038721;28;20651;-71
2023/01/17 03:08:50;;;;;;;;;;;5.10;99.90;;;;;;5047047;28;20003;-72
2023/01/17 03:11:16;;;;;;;;;;;5.00;99.90;;;;;;5026141;28;20015;-71
2023/01/17 03:13:42;;;;;;;;;;;5.00;99.90;;;;;;5026944;28;20492;-71
2023/01/17 03:16:12;;;;;;;;;;;5.10;99.90;;;;;;5024590;28;20596;-71
2023/01/17 03:18:37;;;;;;;;;;;5.10;99.90;;;;;;5029564;28;19908;-72
2023/01/17 03:21:03;;;;;;;;;;;5.00;99.90;;;;;;5046161;28;19920;-72
2023/01/17 03:23:28;;;;;;;;;;;5.00;99.90;;;;;;5046257;28;19912;-72
2023/01/17 03:25:55;;;;;;;;;;;5.00;99.90;;;;;;5046067;28;20403;-72
2023/01/17 03:28:21;;;;;;;;;;;5.00;99.90;;;;;;5046605;28;19955;-72
2023/01/17 03:30:46;;;;;;;;;;;5.00;99.90;;;;;;5028868;28;20018;-71
2023/01/17 03:33:12;;;;;;;;;;;5.00;99.90;;;;;;5026139;28;19944;-72
2023/01/17 03:35:37;;;;;;;;;;;4.90;99.90;;;;;;5042932;28;19922;-72
2023/01/17 03:38:03;;;;;;;;;;;4.90;99.90;;;;;;5044434;28;19913;-71
2023/01/17 03:40:28;;;;;;;;;;;4.90;99.90;;;;;;5034045;28;19916;-72
2023/01/17 03:42:54;;;;;;;;;;;5.00;99.90;;;;;;5026317;28;20579;-71
2023/01/17 03:45:19;;;;;;;;;;;4.90;99.90;;;;;;5026956;28;19917;-72
2023/01/17 03:47:45;;;;;;;;;;;4.90;99.90;;;;;;5026148;28;19917;-71
2023/01/17 03:50:11;;;;;;;;;;;4.90;99.90;;;;;;5026199;28;19959;-71
2023/01/17 03:52:36;;;;;;;;;;;4.90;99.90;;;;;;5026520;28;20289;-71
2023/01/17 03:55:01;;;;;;;;;;;4.90;99.90;;;;;;5030046;28;19909;-71
2023/01/17 03:57:27;;;;;;;;;;;4.90;99.90;;;;;;5027937;28;20318;-72
2023/01/17 03:59:53;;;;;;;;;;;4.90;99.90;;;;;;5026272;28;19909;-72
2023/01/17 04:02:18;;;;;;;;;;;4.90;99.90;;;;;;5026606;28;19909;-72
2023/01/17 04:04:44;;;;;;;;;;;4.90;99.90;;;;;;5038535;28;20640;-71
2023/01/17 04:07:09;;;;;;;;;;;4.80;99.90;;;;;;5046727;28;19913;-72
2023/01/17 04:09:35;;;;;;;;;;;4.90;99.90;;;;;;5045166;28;19951;-72
2023/01/17 04:12:01;;;;;;;;;;;4.90;99.90;;;;;;5029942;28;19913;-71
2023/01/17 04:14:26;;;;;;;;;;;4.80;99.90;;;;;;5030293;28;20326;-71
2023/01/17 04:16:52;;;;;;;;;;;4.90;99.90;;;;;;5030004;28;20390;-70
2023/01/17 04:19:17;;;;;;;;;;;4.90;99.90;;;;;;5028798;28;20008;-71
2023/01/17 04:21:43;;;;;;;;;;;4.90;99.90;;;;;;5042455;28;19917;-71
2023/01/17 04:24:08;;;;;;;;;;;4.90;99.90;;;;;;5041256;28;19960;-72
2023/01/17 04:26:34;;;;;;;;;;;4.80;99.90;;;;;;5045703;28;20392;-71
2023/01/17 04:29:00;;;;;;;;;;;4.80;99.90;;;;;;5049609;28;19916;-71
2023/01/17 04:31:25;;;;;;;;;;;4.80;99.90;;;;;;5035509;28;20541;-71
2023/01/17 04:33:51;;;;;;;;;;;4.80;99.90;;;;;;5036295;28;19912;-71
2023/01/17 04:36:16;;;;;;;;;;;4.80;99.90;;;;;;5046688;28;20370;-72
2023/01/17 04:38:42;;;;;;;;;;;4.80;99.90;;;;;;5049385;28;19916;-71
2023/01/17 04:41:08;;;;;;;;;;;4.80;99.90;;;;;;5038459;28;20254;-71
2023/01/17 04:43:33;;;;;;;;;;;4.80;99.90;;;;;;5049373;28;20328;-71
2023/01/17 04:45:59;;;;;;;;;;;4.80;99.90;;;;;;5042199;28;19917;-71
2023/01/17 04:48:26;;;;;;;;;;;4.80;99.90;;;;;;5033019;28;20444;-71
2023/01/17 04:50:57;;;;;;;;;;;4.80;99.90;;;;;;5029493;28;19913;-72
2023/01/17 04:53:22;;;;;;;;;;;4.80;99.90;;;;;;5029641;28;20285;-72
2023/01/17 04:55:48;;;;;;;;;;;4.80;99.90;;;;;;5038521;28;19920;-71
2023/01/17 04:58:13;;;;;;;;;;;4.80;99.90;;;;;;5049009;28;19917;-72
2023/01/17 05:00:39;;;;;;;;;;;4.80;99.90;;;;;;5048931;28;19923;-72
2023/01/17 05:03:04;;;;;;;;;;;4.80;99.90;;;;;;5049080;28;19916;-72
2023/01/17 05:05:30;;;;;;;;;;;4.80;99.90;;;;;;5047805;28;20285;-71
2023/01/17 05:07:56;;;;;;;;;;;4.80;99.90;;;;;;5044401;28;19963;-71
2023/01/17 05:10:21;;;;;;;;;;;4.80;99.90;;;;;;5037879;28;19935;-72
2023/01/17 05:12:54;;;;;;;;;;;4.80;99.90;;;;;;5029060;28;19909;-71
2023/01/17 05:15:20;;;;;;;;;;;4.80;99.90;;;;;;5027606;28;19913;-72
2023/01/17 05:17:45;;;;;;;;;;;4.70;99.90;;;;;;5047033;28;20426;-72
2023/01/17 05:20:11;;;;;;;;;;;4.80;99.90;;;;;;5027705;28;19913;-72
2023/01/17 05:22:36;;;;;;;;;;;4.80;99.90;;;;;;5037630;28;20400;-72
2023/01/17 05:25:02;;;;;;;;;;;4.80;99.90;;;;;;5036848;28;19917;-72
2023/01/17 05:27:28;;;;;;;;;;;4.80;99.90;;;;;;5047835;28;20524;-72
2023/01/17 05:29:54;;;;;;;;;;;4.80;99.90;;;;;;5048605;28;19909;-71
2023/01/17 05:32:19;;;;;;;;;;;4.80;99.90;;;;;;5048661;28;19909;-71
2023/01/17 05:34:45;;;;;;;;;;;4.70;99.90;;;;;;5048460;28;20697;-71
2023/01/17 05:37:10;;;;;;;;;;;4.80;99.90;;;;;;5047348;28;19912;-72
2023/01/17 05:39:36;;;;;;;;;;;4.70;99.90;;;;;;5043384;28;20634;-72
2023/01/17 05:42:01;;;;;;;;;;;4.80;99.90;;;;;;5029585;28;19999;-71
2023/01/17 05:44:27;;;;;;;;;;;4.70;99.90;;;;;;5048791;28;20024;-71
2023/01/17 05:46:53;;;;;;;;;;;4.70;99.90;;;;;;5046839;28;19916;-72
2023/01/17 05:49:18;;;;;;;;;;;4.70;99.90;;;;;;5048151;28;19909;-72
2023/01/17 05:51:44;;;;;;;;;;;4.70;99.90;;;;;;5048601;28;19967;-72
2023/01/17 05:54:09;;;;;;;;;;;4.70;99.90;;;;;;5048203;28;19909;-71
2023/01/17 05:56:35;;;;;;;;;;;4.70;99.90;;;;;;5047838;28;19912;-71
2023/01/17 05:59:00;;;;;;;;;;;4.70;99.90;;;;;;5048032;28;19927;-71
2023/01/17 06:01:26;;;;;;;;;;;4.70;99.90;;;;;;5048089;28;20000;-72
2023/01/17 06:03:51;;;;;;;;;;;4.70;99.90;;;;;;5054863;28;19947;-71
2023/01/17 06:06:17;;;;;;;;;;;4.70;99.90;;;;;;5067821;28;19912;-71
2023/01/17 06:08:42;;;;;;;;;;;4.70;99.90;;;;;;5068257;28;19959;-72
2023/01/17 06:11:08;;;;;;;;;;;4.70;99.90;;;;;;5050190;28;19917;-72
2023/01/17 06:13:33;;;;;;;;;;;4.70;99.90;;;;;;5047961;28;20471;-71
2023/01/17 06:16:02;;;;;;;;;;;4.70;99.90;;;;;;5047820;28;19916;-71
2023/01/17 06:18:29;;;;;;;;;;;4.70;99.90;;;;;;5041046;28;19916;-72
2023/01/17 06:20:54;;;;;;;;;;;4.70;99.90;;;;;;5026895;28;19971;-72
2023/01/17 06:23:20;;;;;;;;;;;4.70;99.90;;;;;;5027842;28;20703;-72
2023/01/17 06:25:46;;;;;;;;;;;4.70;99.90;;;;;;5037870;28;19917;-72
2023/01/17 06:28:13;;;;;;;;;;;4.70;99.90;;;;;;5047553;28;20269;-72
2023/01/17 06:30:38;;;;;;;;;;;4.70;99.90;;;;;;5047287;28;19913;-71
2023/01/17 06:33:04;;;;;;;;;;;4.60;99.90;;;;;;5046286;28;19923;-71
2023/01/17 06:35:30;;;;;;;;;;;4.60;99.90;;;;;;5067543;28;20575;-71
2023/01/17 06:37:57;;;;;;;;;;;4.60;99.90;;;;;;5067313;28;19965;-72
2023/01/17 06:40:23;;;;;;;;;;;4.70;99.90;;;;;;5055698;28;19921;-72
2023/01/17 06:42:49;;;;;;;;;;;4.60;99.90;;;;;;5042683;28;20413;-71
2023/01/17 06:45:14;;;;;;;;;;;4.60;99.90;;;;;;5047127;28;20603;-71
2023/01/17 06:47:40;;;;;;;;;;;4.60;99.90;;;;;;5047782;28;19940;-72
2023/01/17 06:50:09;;;;;;;;;;;4.60;99.90;;;;;;5046640;28;19919;-71
2023/01/17 06:52:35;;;;;;;;;;;4.60;99.90;;;;;;5047075;28;20598;-72
2023/01/17 06:55:00;;;;;;;;;;;4.60;99.90;;;;;;5046952;28;19913;-71
2023/01/17 06:57:26;;;;;;;;;;;4.60;99.90;;;;;;5047541;28;19919;-72
2023/01/17 06:59:51;;;;;;;;;;;4.60;99.90;;;;;;5046775;28;19913;-72
2023/01/17 07:02:17;;;;;;;;;;;4.60;99.90;;;;;;5045236;28;19913;-72
2023/01/17 07:04:42;;;;;;;;;;;4.60;99.90;;;;;;5059201;28;20023;-72
2023/01/17 07:07:08;;;;;;;;;;;4.60;99.90;;;;;;5066896;28;20350;-72
2023/01/17 07:09:33;;;;;;;;;;;4.60;99.90;;;;;;5062020;28;19909;-71
2023/01/17 07:12:00;;;;;;;;;;;4.60;99.90;;;;;;5038940;28;19916;-72
2023/01/17 07:14:26;;;;;;;;;;;4.60;99.90;;;;;;5043735;28;20411;-72
2023/01/17 07:16:52;;;;;;;;;;;4.60;99.90;;;;;;5039505;28;19937;-72
2023/01/17 07:19:17;;;;;;;;;;;4.60;99.90;;;;;;5030348;28;19967;-71
2023/01/17 07:21:43;;;;;;;;;;;4.60;99.90;;;;;;5025660;28;19932;-72
2023/01/17 07:24:08;;;;;;;;;;;4.60;99.90;;;;;;5026443;28;19910;-72
2023/01/17 07:26:36;;;;;;;;;;;4.60;99.90;;;;;;5043261;28;20356;-72
2023/01/17 07:29:02;;;;;;;;;;;4.60;99.90;;;;;;5046490;28;20011;-71
2023/01/17 07:31:28;;;;;;;;;;;4.60;99.90;;;;;;5044666;28;20360;-72
2023/01/17 07:33:53;;;;;;;;;;;4.60;99.90;;;;;;5053196;28;19909;-72
2023/01/17 07:36:19;;;;;;;;;;;4.60;99.90;;;;;;5066399;28;19913;-71
2023/01/17 07:38:45;;;;;;;;;;;4.60;99.90;;;;;;5066405;28;20430;-72
2023/01/17 07:41:11;;;;;;;;;;;4.60;99.90;;;;;;5061538;28;19913;-71
2023/01/17 07:43:36;;;;;;;;;;;4.60;99.90;;;;;;5046032;28;19921;-72
2023/01/17 07:46:04;;;;;;;;;;;4.60;99.90;;;;;;5046359;28;20243;-72
2023/01/17 07:48:29;;;;;;;;;;;4.60;99.90;;;;;;5046211;28;19917;-71
2023/01/17 07:50:55;;;;;;;;;;;4.60;99.90;;;;;;5045966;28;19915;-72
2023/01/17 07:53:22;;;;;;;;;;;4.60;99.90;;;;;;5046237;28;19960;-71
2023/01/17 07:55:48;;;;;;;;;;;4.60;99.90;;;;;;5045955;28;19913;-72
2023/01/17 07:58:14;;;;;;;;;;;4.50;99.90;;;;;;5045973;28;20387;-71
2023/01/17 08:00:41;;;;;;;;;;;4.60;99.90;;;;;;5035890;28;19913;-72
2023/01/17 08:03:10;;;;;;;;;;;4.50;99.90;;;;;;5028782;28;20012;-72
2023/01/17 08:05:36;;;;;;;;;;;4.50;99.90;;;;;;5046799;28;19941;-71
2023/01/17 08:08:01;;;;;;;;;;;4.50;99.90;;;;;;5045984;28;20045;-72
2023/01/17 08:10:27;;;;;;;;;;;4.60;99.90;;;;;;5045616;28;19909;-73
2023/01/17 08:12:52;;;;;;;;;;;4.60;99.90;;;;;;5046237;28;19909;-71
2023/01/17 08:15:18;;;;;;;;;;;4.60;99.90;;;;;;5045885;28;20273;-72
2023/01/17 08:17:47;;;;;;;;;;;4.60;99.90;;;;;;5045596;28;19909;-72
2023/01/17 08:20:12;;;;;;;;;;;4.50;99.90;;;;;;5025597;28;19909;-72
2023/01/17 08:22:38;;;;;;;;;;;4.50;99.90;;;;;;5026292;28;19917;-72
2023/01/17 08:25:04;;;;;;;;;;;4.60;99.90;;;;;;5030345;28;19944;-71
2023/01/17 08:27:29;;;;;;;;;;;4.50;99.90;;;;;;5045965;28;19913;-72
2023/01/17 08:29:55;;;;;;;;;;;4.50;99.90;;;;;;5046114;28;19913;-72
2023/01/17 08:32:20;;;;;;;;;;;4.50;99.90;;;;;;5046444;28;19916;-71
2023/01/17 08:34:46;;;;;;;;;;;4.60;99.90;;;;;;5060352;28;19951;-72
2023/01/17 08:37:11;;;;;;;;;;;4.50;99.90;;;;;;5064915;28;19912;-72
2023/01/17 08:39:37;;;;;;;;;;;4.50;99.90;;;;;;5065827;28;20428;-72
2023/01/17 08:42:02;;;;;;;;;;;4.50;99.90;;;;;;5054195;28;19952;-71
2023/01/17 08:44:28;;;;;;;;;;;4.60;99.90;;;;;;5046000;28;19917;-72
2023/01/17 08:46:53;;;;;;;;;;;4.50;99.90;;;;;;5045077;28;20511;-72
2023/01/17 08:49:19;;;;;;;;;;;4.60;99.90;;;;;;5043379;28;19909;-72
2023/01/17 08:51:44;;;;;;;;;;;4.60;99.90;;;;;;5045897;28;20429;-71
2023/01/17 08:54:12;;;;;;;;;;;4.60;99.90;;;;;;5046579;28;19927;-72
2023/01/17 08:56:38;;;;;;;;;;;4.50;99.90;;;;;;5049568;28;19920;-72
2023/01/17 08:59:03;;;;;;;;;;;4.50;99.90;;;;;;5049514;28;19912;-72
2023/01/17 09:01:29;;;;;;;;;;;4.50;99.90;;;;;;5047894;28;20342;-72
2023/01/17 09:03:54;;;;;;;;;;;4.50;99.90;;;;;;5053342;28;19912;-72
2023/01/17 09:06:19;;;;;;;;;;;4.50;99.90;;;;;;5069427;28;19915;-72
2023/01/17 09:08:45;;;;;;;;;;;4.60;99.90;;;;;;5067905;28;19924;-72
2023/01/17 09:11:12;;;;;;;;;;;4.60;99.90;;;;;;5064417;28;19919;-71
2023/01/17 09:13:38;;;;;;;;;;;4.50;99.90;;;;;;5049287;28;19912;-72
2023/01/17 09:16:04;;;;;;;;;;;4.50;99.90;;;;;;5049025;28;20357;-71
2023/01/17 09:18:30;;;;;;;;;;;4.50;99.90;;;;;;5042115;28;19910;-71
2023/01/17 09:20:58;;;;;;;;;;;4.50;99.90;;;;;;5028410;28;19936;-72
2023/01/17 09:23:27;;;;;;;;;;;4.50;99.90;;;;;;5028912;28;20042;-72
2023/01/17 09:25:53;;;;;;;;;;;4.60;99.90;;;;;;5039993;28;19970;-72
2023/01/17 09:28:19;;;;;;;;;;;4.50;99.90;;;;;;5048772;28;19913;-72
2023/01/17 09:30:45;;;;;;;;;;;4.50;99.90;;;;;;5048618;28;19923;-72
2023/01/17 09:33:11;;;;;;;;;;;4.50;99.90;;;;;;5050010;28;19912;-72
2023/01/17 09:35:36;;;;;;;;;;;4.50;99.90;;;;;;5068712;28;20050;-72
2023/01/17 09:38:02;;;;;;;;;;;4.50;99.90;;;;;;5068716;28;20645;-72
2023/01/17 09:40:28;;;;;;;;;;;4.50;99.90;;;;;;5067030;28;20372;-72
2023/01/17 09:42:56;;;;;;;;;;;4.50;99.90;;;;;;5050259;28;19923;-71
2023/01/17 09:45:24;;;;;;;;;;;4.60;99.90;;;;;;5046886;28;19934;-71
2023/01/17 09:47:51;;;;;;;;;;;4.60;99.90;;;;;;5048899;28;19967;-72
2023/01/17 09:50:24;;;;;;;;;;;4.60;99.90;;;;;;5048418;28;19936;-72
2023/01/17 09:52:51;;;;;;;;;;;4.60;99.90;;;;;;5048780;28;20366;-71
2023/01/17 09:55:17;;;;;;;;;;;4.60;99.90;;;;;;5048593;28;19913;-71
2023/01/17 09:57:52;;;;;;;;;;;4.60;99.90;;;;;;5048680;28;20373;-71
2023/01/17 10:00:24;;;;;;;;;;;4.60;99.90;;;;;;5048256;28;19924;-71
2023/01/17 10:03:08;;;;;;;;;;;4.60;99.90;;;;;;5048307;28;20327;-72
2023/01/17 10:05:48;;;;;;;;;;;4.60;99.90;;;;;;5028152;28;20007;-71
2023/01/17 10:08:29;;;;;;;;;;;4.60;99.90;;;;;;5028522;28;19917;-72
2023/01/17 10:11:16;;;;;;;;;;;4.60;99.90;;;;;;5029660;28;19913;-71
2023/01/17 10:14:01;;;;;;;;;;;4.60;99.90;;;;;;5047857;28;19912;-72
2023/01/17 10:16:32;;;;;;;;;;;4.60;99.90;;;;;;5046703;28;19998;-71
2023/01/17 10:19:07;;;;;;;;;;;4.70;99.90;;;;;;5035398;28;19916;-71
2023/01/17 10:21:40;;;;;;;;;;;4.70;99.90;;;;;;5027777;28;19913;-71
2023/01/17 10:24:24;;;;;;;;;;;4.70;99.90;;;;;;5028005;28;19961;-72
2023/01/17 10:26:52;;;;;;;;;;;4.70;99.90;;;;;;5046630;28;19962;-71
2023/01/17 10:29:18;;;;;;;;;;;4.70;99.90;;;;;;5048064;28;19913;-72
2023/01/17 10:31:49;;;;;;;;;;;4.70;99.90;;;;;;5047827;28;19908;-72
2023/01/17 10:34:36;;;;;;;;;;;4.70;99.90;;;;;;5057876;28;20412;-72
2023/01/17 10:37:14;;;;;;;;;;;4.70;99.90;;;;;;5068002;28;20411;-72
2023/01/17 10:39:40;;;;;;;;;;;4.70;99.90;;;;;;5067573;28;19962;-71
2023/01/17 10:42:12;;;;;;;;;;;4.70;99.90;;;;;;5055157;28;19978;-71
2023/01/17 10:44:47;;;;;;;;;;;4.70;99.90;;;;;;5047953;28;19909;-72
2023/01/17 10:47:23;;;;;;;;;;;4.80;99.90;;;;;;5046135;28;19913;-72
2023/01/17 10:49:52;;;;;;;;;;;4.80;99.90;;;;;;5047177;28;20023;-72
2023/01/17 10:52:21;;;;;;;;;;;4.80;99.90;;;;;;5047875;28;19913;-71
2023/01/17 10:55:02;;;;;;;;;;;4.80;99.90;;;;;;5047067;28;19965;-72
2023/01/17 10:57:30;;;;;;;;;;;4.80;99.90;;;;;;5045522;28;20250;-71
2023/01/17 10:59:57;;;;;;;;;;;4.80;99.90;;;;;;5047131;28;19913;-72
2023/01/17 11:02:24;;;;;;;;;;;4.80;99.90;;;;;;5047529;28;20006;-72
2023/01/17 11:04:53;;;;;;;;;;;4.90;99.90;;;;;;5061886;28;19913;-72
2023/01/17 11:07:21;;;;;;;;;;;4.90;99.90;;;;;;5067314;28;19920;-72
2023/01/17 11:09:48;;;;;;;;;;;4.90;99.80;;;;;;5061913;28;19920;-72
2023/01/17 11:12:31;;;;;;;;;;;4.90;99.90;;;;;;5040796;28;20566;-71
2023/01/17 11:14:59;;;;;;;;;;;4.90;99.90;;;;;;5036824;28;20434;-71
2023/01/17 11:17:26;;;;;;;;;;;4.90;99.80;;;;;;5045916;28;19956;-72
2023/01/17 11:19:53;;;;;;;;;;;4.90;99.90;;;;;;5037001;28;19917;-72
2023/01/17 11:22:19;;;;;;;;;;;4.90;99.90;;;;;;5044904;28;19913;-72
2023/01/17 11:24:49;;;;;;;;;;;4.90;99.90;;;;;;5038112;28;19924;-72
2023/01/17 11:27:28;;;;;;;;;;;4.90;99.90;;;;;;5046866;28;19924;-72
2023/01/17 11:30:28;;;;;;;;;;;5.00;99.90;;;;;;5036423;28;19913;-72
2023/01/17 11:32:55;;;;;;;;;;;5.00;99.80;;;;;;5037161;28;19948;-72
2023/01/17 11:35:24;;;;;;;;;;;5.00;99.60;;;;;;5048619;28;19912;-72
2023/01/17 11:37:51;;;;;;;;;;;5.10;99.60;;;;;;5048771;28;19909;-72
2023/01/17 11:40:19;;;;;;;;;;;5.10;99.50;;;;;;5047957;28;19983;-72
2023/01/17 11:42:45;;;;;;;;;;;5.10;99.50;;;;;;5048448;28;20357;-72
2023/01/17 11:45:30;;;;;;;;;;;5.10;99.50;;;;;;5048881;28;19913;-72
2023/01/17 11:48:11;;;;;;;;;;;5.20;99.40;;;;;;5048927;28;19913;-70
2023/01/17 11:50:37;;;;;;;;;;;5.20;99.50;;;;;;5048034;28;19912;-72
2023/01/17 11:53:04;;;;;;;;;;;5.20;99.40;;;;;;5048750;28;19913;-72
2023/01/17 11:55:29;;;;;;;;;;;5.20;99.50;;;;;;5048676;28;19909;-72
2023/01/17 11:57:55;;;;;;;;;;;5.10;99.50;;;;;;5048729;28;19913;-72
2023/01/17 12:00:27;;;;;;;;;;;5.10;99.50;;;;;;5048317;28;19952;-72
2023/01/17 12:03:25;;;;;;;;;;;5.10;99.60;;;;;;5048340;28;20281;-72
2023/01/17 12:05:52;;;;;;;;;;;5.10;99.60;;;;;;5005279;28;19936;-73
2023/01/17 12:08:20;;;;;;;;;;;5.20;99.90;;;;;;5028546;28;19914;-72
2023/01/17 12:11:04;;;;;;;;;;;5.20;99.70;;;;;;5029129;28;19913;-72
2023/01/17 12:16:30;;;;;;;;;;;5.20;99.70;;;;;;5047692;28;19920;-72
2023/01/17 12:19:16;;;;;;;;;;;5.20;99.60;;;;;;5037527;28;20435;-72
2023/01/17 12:21:45;;;;;;;;;;;5.20;99.60;;;;;;5038201;28;20647;-72
2023/01/17 12:24:26;;;;;;;;;;;5.20;99.50;;;;;;5048256;28;20426;-72
2023/01/17 12:26:51;;;;;;;;;;;5.20;99.50;;;;;;5048336;28;19998;-71
2023/01/17 12:29:25;;;;;;;;;;;5.20;99.60;;;;;;5050937;28;20373;-71
2023/01/17 12:32:08;;;;;;;;;;;5.20;99.60;;;;;;5052028;28;19924;-72
2023/01/17 12:34:53;;;;;;;;;;;5.20;99.60;;;;;;5064307;28;20034;-72
2023/01/17 12:37:24;;;;;;;;;;;5.20;99.60;;;;;;5072119;28;19908;-72
2023/01/17 12:39:58;;;;;;;;;;;5.20;99.70;;;;;;5070177;28;19912;-72
2023/01/17 12:42:27;;;;;;;;;;;5.20;99.60;;;;;;5057413;28;19920;-72
2023/01/17 12:45:25;;;;;;;;;;;5.20;99.50;;;;;;5051944;28;20231;-72
2023/01/17 12:47:53;;;;;;;;;;;5.20;99.70;;;;;;5028442;28;20371;-72
2023/01/17 12:50:27;;;;;;;;;;;5.20;99.70;;;;;;5051237;28;19913;-72
2023/01/17 12:52:58;;;;;;;;;;;5.20;99.70;;;;;;5051755;28;19909;-72
2023/01/17 12:55:36;;;;;;;;;;;5.20;99.60;;;;;;5051431;28;19916;-72
2023/01/17 12:58:03;;;;;;;;;;;5.30;99.60;;;;;;5051929;28;19913;-72
2023/01/17 13:00:28;;;;;;;;;;;5.30;99.50;;;;;;5051618;28;19915;-72
2023/01/17 13:02:58;;;;;;;;;;;5.40;99.50;;;;;;5051422;28;19913;-72
2023/01/17 13:05:26;;;;;;;;;;;5.30;99.50;;;;;;5038364;28;19913;-72
2023/01/17 13:07:58;;;;;;;;;;;5.40;99.50;;;;;;5033006;28;19917;-72
2023/01/17 13:10:27;;;;;;;;;;;5.40;99.50;;;;;;5031195;28;20355;-72
2023/01/17 13:12:55;;;;;;;;;;;5.40;99.40;;;;;;5047291;28;20289;-72
2023/01/17 13:15:26;;;;;;;;;;;5.40;99.40;;;;;;5042060;28;19913;-72
2023/01/17 13:17:59;;;;;;;;;;;5.40;99.50;;;;;;5050545;28;19952;-72
2023/01/17 13:20:30;;;;;;;;;;;5.40;99.50;;;;;;5031640;28;19913;-71
2023/01/17 13:22:59;;;;;;;;;;;5.40;99.50;;;;;;5030589;28;19913;-71
2023/01/17 13:25:39;;;;;;;;;;;5.40;99.60;;;;;;5037577;28;19917;-72
2023/01/17 13:28:04;;;;;;;;;;;5.30;99.60;;;;;;5050999;28;19924;-71
2023/01/17 13:30:42;;;;;;;;;;;5.30;99.70;;;;;;5050971;28;19912;-72
2023/01/17 13:33:14;;;;;;;;;;;5.30;99.90;;;;;;5033295;28;19917;-72
2023/01/17 13:35:43;;;;;;;;;;;5.30;99.70;;;;;;5070962;28;19912;-72
2023/01/17 13:38:08;;;;;;;;;;;5.30;99.70;;;;;;5069426;28;19916;-72
2023/01/17 13:40:34;;;;;;;;;;;5.30;99.70;;;;;;5069736;28;19923;-72
2023/01/17 13:42:59;;;;;;;;;;;5.30;99.80;;;;;;5070672;28;20702;-72
2023/01/17 13:45:26;;;;;;;;;;;5.20;99.80;;;;;;5070955;28;19913;-70
2023/01/17 13:47:52;;;;;;;;;;;5.20;99.80;;;;;;5051212;28;19927;-72
2023/01/17 13:50:36;;;;;;;;;;;5.20;99.80;;;;;;5050401;28;20614;-72
2023/01/17 13:53:20;;;;;;;;;;;5.20;99.80;;;;;;5050496;28;20012;-71
2023/01/17 13:55:49;;;;;;;;;;;5.30;99.80;;;;;;5050675;28;19954;-72
2023/01/17 13:58:28;;;;;;;;;;;5.30;99.80;;;;;;5050365;28;19916;-72
2023/01/17 14:00:54;;;;;;;;;;;5.20;99.80;;;;;;5050145;28;19962;-72
2023/01/17 14:03:38;;;;;;;;;;;5.20;99.80;;;;;;5052963;28;19917;-72
2023/01/17 14:06:03;;;;;;;;;;;5.20;99.80;;;;;;5070330;28;19931;-70
2023/01/17 14:08:30;;;;;;;;;;;5.20;99.90;;;;;;5070360;28;20424;-72
2023/01/17 14:11:04;;;;;;;;;;;5.20;99.80;;;;;;5069687;28;20436;-72
2023/01/17 14:13:38;;;;;;;;;;;5.20;99.70;;;;;;5070460;28;19923;-72
2023/01/17 14:16:21;;;;;;;;;;;5.30;99.80;;;;;;5070174;28;20378;-72
2023/01/17 14:18:47;;;;;;;;;;;5.30;99.80;;;;;;5039130;28;19995;-72
2023/01/17 14:21:18;;;;;;;;;;;5.30;99.80;;;;;;5036075;28;20018;-72
2023/01/17 14:23:58;;;;;;;;;;;5.30;99.80;;;;;;5046543;28;19944;-71
2023/01/17 14:26:27;;;;;;;;;;;5.30;99.70;;;;;;5047515;28;20348;-72
2023/01/17 14:28:52;;;;;;;;;;;5.30;99.80;;;;;;5049025;28;20373;-71
2023/01/17 14:31:20;;;;;;;;;;;5.30;99.60;;;;;;5049042;28;19915;-72
2023/01/17 14:33:46;;;;;;;;;;;5.30;99.70;;;;;;5055118;28;19912;-72
2023/01/17 14:36:26;;;;;;;;;;;5.30;99.80;;;;;;5068933;28;19920;-72
2023/01/17 14:38:51;;;;;;;;;;;5.30;99.80;;;;;;5069237;28;19913;-72
2023/01/17 14:41:27;;;;;;;;;;;5.30;99.80;;;;;;5068647;28;19915;-72
2023/01/17 14:43:53;;;;;;;;;;;5.30;99.70;;;;;;5068867;28;19917;-72
2023/01/17 14:46:22;;;;;;;;;;;5.30;99.80;;;;;;5068615;28;20262;-72
2023/01/17 14:48:47;;;;;;;;;;;5.30;99.80;;;;;;5068979;28;19912;-72
2023/01/17 14:51:17;;;;;;;;;;;5.30;99.80;;;;;;5068506;28;19912;-72
2023/01/17 14:53:51;;;;;;;;;;;5.30;99.80;;;;;;5068922;28;19913;-72
2023/01/17 14:56:17;;;;;;;;;;;5.20;99.80;;;;;;5053820;28;20629;-72
2023/01/17 14:58:45;;;;;;;;;;;5.20;99.80;;;;;;5048243;28;19979;-73
2023/01/17 15:01:18;;;;;;;;;;;5.20;99.80;;;;;;5044643;28;19975;-72
2023/01/17 15:03:48;;;;;;;;;;;5.20;99.80;;;;;;5053747;28;19997;-72
2023/01/17 15:06:23;;;;;;;;;;;5.20;99.80;;;;;;5033623;28;19980;-72
2023/01/17 15:08:50;;;;;;;;;;;5.10;99.90;;;;;;5039484;28;19918;-71
2023/01/17 15:11:21;;;;;;;;;;;5.10;99.90;;;;;;5045371;28;19920;-71
2023/01/17 15:13:48;;;;;;;;;;;5.10;99.90;;;;;;5049014;28;19919;-71
2023/01/17 15:16:16;;;;;;;;;;;5.00;99.90;;;;;;5048200;28;19909;-71
2023/01/17 15:18:42;;;;;;;;;;;5.00;99.90;;;;;;5039832;28;19913;-71
2023/01/17 15:21:09;;;;;;;;;;;5.00;99.90;;;;;;5043359;28;20428;-71
2023/01/17 15:23:37;;;;;;;;;;;5.00;99.90;;;;;;5048704;28;19916;-70
2023/01/17 15:26:03;;;;;;;;;;;4.90;99.90;;;;;;5040078;28;19962;-70
2023/01/17 15:28:29;;;;;;;;;;;4.90;99.90;;;;;;5036858;28;19995;-70
2023/01/17 15:31:05;;;;;;;;;;;4.90;99.90;;;;;;5028758;28;19917;-71
2023/01/17 15:33:31;;;;;;;;;;;4.90;99.90;;;;;;5032695;28;19916;-71
2023/01/17 15:35:58;;;;;;;;;;;4.80;99.90;;;;;;5048653;28;19917;-71
2023/01/17 15:38:25;;;;;;;;;;;4.80;99.90;;;;;;5048641;28;20057;-71
2023/01/17 15:40:50;;;;;;;;;;;4.80;99.90;;;;;;5049940;28;19994;-71
2023/01/17 15:43:22;;;;;;;;;;;4.80;99.90;;;;;;5068419;28;19963;-70
2023/01/17 15:45:55;;;;;;;;;;;4.70;99.90;;;;;;5068638;28;19919;-70
2023/01/17 15:48:34;;;;;;;;;;;4.80;99.90;;;;;;5038732;28;20573;-71
2023/01/17 15:50:59;;;;;;;;;;;4.80;99.80;;;;;;5037239;28;19988;-71
2023/01/17 15:53:30;;;;;;;;;;;4.80;99.70;;;;;;5038757;28;19996;-70
2023/01/17 15:55:55;;;;;;;;;;;4.80;99.70;;;;;;5038206;28;19917;-70
2023/01/17 15:58:22;;;;;;;;;;;4.70;99.70;;;;;;5039354;28;19924;-71
2023/01/17 16:00:48;;;;;;;;;;;4.70;99.60;;;;;;5035361;28;19995;-70